createdAt,value
2023-05-20T00:00:36.940Z,1.63
2023-05-20T00:03:03.719Z,1.80
2023-05-20T00:05:30.139Z,1.60
2023-05-20T00:07:56.426Z,1.53
2023-05-20T00:10:22.762Z,1.53
2023-05-20T00:12:49.761Z,1.80
2023-05-20T00:15:16.257Z,1.93
2023-05-20T00:17:42.538Z,1.90
2023-05-20T00:20:09.296Z,1.90
2023-05-20T00:22:35.603Z,1.90
2023-05-20T00:25:01.876Z,2.27
2023-05-20T00:27:28.183Z,1.70
2023-05-20T00:29:55.144Z,1.80
2023-05-20T00:32:21.570Z,1.90
2023-05-20T00:34:55.901Z,1.80
2023-05-20T00:37:22.170Z,1.90
2023-05-20T00:39:48.418Z,2.00
2023-05-20T00:42:19.873Z,1.90
2023-05-20T00:44:46.135Z,1.90
2023-05-20T00:47:13.124Z,1.70
2023-05-20T00:49:39.451Z,1.80
2023-05-20T00:52:06.694Z,2.13
2023-05-20T00:54:33.085Z,1.73
2023-05-20T00:56:59.679Z,1.90
2023-05-20T00:59:26.167Z,2.00
2023-05-20T01:01:52.829Z,2.20
2023-05-20T01:04:20.505Z,1.80
2023-05-20T01:06:47.155Z,2.00
2023-05-20T01:09:13.499Z,2.17
2023-05-20T01:11:44.623Z,2.00
2023-05-20T01:14:12.205Z,1.80
2023-05-20T01:16:39.135Z,2.10
2023-05-20T01:19:14.185Z,2.27
2023-05-20T01:21:41.242Z,2.00
2023-05-20T01:24:08.198Z,2.03
2023-05-20T01:26:37.570Z,2.00
2023-05-20T01:29:04.102Z,2.20
2023-05-20T01:31:33.052Z,1.80
2023-05-20T01:34:00.150Z,1.60
2023-05-20T01:36:26.827Z,2.27
2023-05-20T01:38:53.513Z,2.53
2023-05-20T01:41:21.296Z,2.30
2023-05-20T01:43:47.636Z,2.20
2023-05-20T01:46:15.127Z,2.20
2023-05-20T01:48:42.268Z,2.60
2023-05-20T01:51:08.609Z,2.33
2023-05-20T01:53:34.955Z,2.30
2023-05-20T01:56:01.228Z,2.40
2023-05-20T01:58:28.230Z,2.50
2023-05-20T02:00:54.583Z,2.50
2023-05-20T02:03:20.971Z,2.60
2023-05-20T02:05:47.247Z,2.67
2023-05-20T02:08:13.578Z,2.60
2023-05-20T02:10:39.933Z,2.50
2023-05-20T02:13:06.370Z,2.50
2023-05-20T02:15:33.406Z,2.77
2023-05-20T02:18:00.191Z,3.20
2023-05-20T02:20:26.745Z,2.50
2023-05-20T02:22:53.042Z,2.63
2023-05-20T02:25:19.339Z,2.77
2023-05-20T02:27:45.659Z,2.70
2023-05-20T02:30:12.077Z,2.40
2023-05-20T02:32:39.034Z,2.80
2023-05-20T02:35:06.030Z,2.67
2023-05-20T02:37:34.189Z,2.73
2023-05-20T02:40:00.464Z,2.70
2023-05-20T02:42:26.791Z,3.07
2023-05-20T02:44:55.854Z,3.07
2023-05-20T02:47:22.231Z,3.40
2023-05-20T02:49:49.076Z,3.27
2023-05-20T02:52:15.687Z,3.13
2023-05-20T02:54:42.111Z,3.03
2023-05-20T02:57:08.504Z,3.13
2023-05-20T02:59:34.841Z,3.33
2023-05-20T03:02:01.258Z,3.57
2023-05-20T03:04:27.607Z,3.93
2023-05-20T03:06:56.989Z,3.50
2023-05-20T03:09:23.519Z,3.67
2023-05-20T03:11:50.189Z,3.63
2023-05-20T03:14:16.594Z,3.73
2023-05-20T03:16:42.882Z,3.80
2023-05-20T03:19:09.528Z,3.80
2023-05-20T03:21:35.869Z,3.40
2023-05-20T03:24:03.030Z,3.60
2023-05-20T03:26:29.804Z,3.43
2023-05-20T03:28:56.040Z,3.63
2023-05-20T03:31:22.332Z,3.70
2023-05-20T03:33:48.627Z,3.43
2023-05-20T03:36:14.845Z,3.40
2023-05-20T03:38:41.187Z,3.80
2023-05-20T03:41:08.128Z,3.30
2023-05-20T03:43:34.403Z,3.70
2023-05-20T03:46:00.709Z,3.13
2023-05-20T03:48:27.098Z,3.40
2023-05-20T03:50:53.404Z,3.10
2023-05-20T03:53:20.142Z,3.47
2023-05-20T03:55:46.452Z,3.77
2023-05-20T03:58:14.618Z,3.53
2023-05-20T04:00:41.585Z,3.40
2023-05-20T04:03:08.028Z,3.37
2023-05-20T04:05:35.853Z,3.20
2023-05-20T04:08:04.001Z,3.27
2023-05-20T04:10:31.378Z,3.07
2023-05-20T04:12:57.681Z,2.93
2023-05-20T04:15:24.691Z,3.10
2023-05-20T04:17:51.649Z,2.90
2023-05-20T04:20:19.221Z,2.93
2023-05-20T04:22:45.506Z,2.87
2023-05-20T04:25:13.252Z,2.83
2023-05-20T04:27:39.678Z,2.40
2023-05-20T04:30:07.217Z,2.97
2023-05-20T04:32:34.213Z,2.73
2023-05-20T04:35:01.537Z,2.67
2023-05-20T04:37:28.075Z,2.70
2023-05-20T04:39:54.518Z,2.33
2023-05-20T04:42:21.678Z,2.60
2023-05-20T04:44:48.302Z,2.40
2023-05-20T04:47:14.744Z,3.00
2023-05-20T04:49:41.842Z,2.30
2023-05-20T04:52:08.110Z,2.80
2023-05-20T04:54:34.423Z,2.63
2023-05-20T04:57:00.786Z,2.50
2023-05-20T04:59:27.047Z,2.60
2023-05-20T05:01:53.402Z,2.40
2023-05-20T05:04:19.855Z,2.47
2023-05-20T05:06:48.077Z,2.43
2023-05-20T05:09:14.886Z,2.50
2023-05-20T05:11:41.197Z,2.40
2023-05-20T05:14:07.480Z,2.17
2023-05-20T05:16:33.797Z,2.40
2023-05-20T05:19:00.059Z,2.70
2023-05-20T05:21:26.402Z,2.27
2023-05-20T05:23:53.363Z,2.37
2023-05-20T05:26:20.222Z,2.70
2023-05-20T05:28:46.503Z,2.50
2023-05-20T05:31:12.738Z,2.47
2023-05-20T05:33:39.060Z,2.30
2023-05-20T05:36:05.856Z,2.40
2023-05-20T05:38:32.157Z,2.40
2023-05-20T05:40:59.070Z,3.10
2023-05-20T05:43:25.798Z,2.33
2023-05-20T05:45:52.083Z,2.60
2023-05-20T05:48:18.538Z,2.67
2023-05-20T05:50:45.457Z,2.77
2023-05-20T05:53:11.811Z,2.07
2023-05-20T05:55:38.109Z,2.37
2023-05-20T05:58:05.079Z,2.63
2023-05-20T06:00:31.295Z,2.40
2023-05-20T06:02:57.957Z,2.80
2023-05-20T06:05:25.391Z,2.57
2023-05-20T06:07:52.711Z,2.50
2023-05-20T06:10:18.943Z,2.57
2023-05-20T06:12:45.234Z,2.37
2023-05-20T06:15:12.892Z,2.93
2023-05-20T06:17:39.418Z,2.57
2023-05-20T06:20:07.074Z,2.77
2023-05-20T06:22:33.328Z,2.50
2023-05-20T06:25:01.654Z,2.53
2023-05-20T06:27:27.905Z,3.33
2023-05-20T06:29:54.185Z,2.60
2023-05-20T06:32:21.192Z,2.20
2023-05-20T06:34:47.504Z,2.77
2023-05-20T06:37:13.794Z,2.47
2023-05-20T06:39:40.238Z,2.57
2023-05-20T06:42:06.583Z,2.30
2023-05-20T06:44:32.790Z,2.80
2023-05-20T06:47:04.878Z,2.60
2023-05-20T06:49:31.774Z,2.87
2023-05-20T06:51:58.102Z,2.67
2023-05-20T06:54:24.362Z,3.20
2023-05-20T06:56:51.218Z,3.30
2023-05-20T06:59:17.607Z,2.63
2023-05-20T07:01:43.921Z,2.83
2023-05-20T07:04:10.368Z,3.07
2023-05-20T07:06:37.237Z,2.50
2023-05-20T07:09:04.624Z,2.57
2023-05-20T07:11:30.846Z,2.50
2023-05-20T07:13:57.294Z,2.60
2023-05-20T07:16:23.527Z,2.80
2023-05-20T07:18:49.811Z,2.77
2023-05-20T07:21:16.124Z,2.17
2023-05-20T07:23:43.288Z,2.97
2023-05-20T07:26:09.503Z,2.87
2023-05-20T07:28:36.034Z,2.77
2023-05-20T07:31:02.796Z,2.77
2023-05-20T07:33:29.291Z,2.87
2023-05-20T07:35:55.583Z,2.80
2023-05-20T07:38:21.957Z,3.07
2023-05-20T07:40:49.068Z,2.70
2023-05-20T07:43:16.089Z,2.80
2023-05-20T07:45:42.404Z,2.97
2023-05-20T07:48:10.139Z,2.40
2023-05-20T07:50:36.555Z,2.70
2023-05-20T07:53:02.902Z,3.20
2023-05-20T07:55:30.527Z,2.73
2023-05-20T07:57:57.600Z,3.00
2023-05-20T08:00:24.300Z,3.00
2023-05-20T08:02:52.015Z,2.90
2023-05-20T08:05:18.734Z,2.97
2023-05-20T08:07:45.102Z,2.90
2023-05-20T08:10:11.425Z,2.87
2023-05-20T08:12:37.772Z,3.07
2023-05-20T08:15:05.989Z,3.10
2023-05-20T08:17:32.930Z,2.90
2023-05-20T08:19:59.143Z,3.40
2023-05-20T08:22:25.421Z,2.90
2023-05-20T08:24:51.658Z,3.20
2023-05-20T08:27:17.977Z,3.30
2023-05-20T08:29:44.884Z,3.33
2023-05-20T08:32:11.914Z,3.37
2023-05-20T08:34:38.315Z,3.23
2023-05-20T08:37:04.835Z,3.63
2023-05-20T08:39:31.107Z,3.50
2023-05-20T08:41:58.380Z,3.60
2023-05-20T08:44:25.985Z,3.07
2023-05-20T08:46:54.590Z,3.57
2023-05-20T08:49:21.606Z,3.43
2023-05-20T08:51:48.508Z,3.67
2023-05-20T08:54:16.146Z,3.67
2023-05-20T08:56:43.963Z,3.20
2023-05-20T08:59:10.446Z,3.17
2023-05-20T09:01:41.319Z,3.57
2023-05-20T09:04:07.789Z,4.03
2023-05-20T09:06:43.241Z,3.53
2023-05-20T09:09:10.421Z,2.97
2023-05-20T09:11:36.680Z,3.50
2023-05-20T09:14:03.049Z,4.13
2023-05-20T09:16:29.861Z,3.40
2023-05-20T09:18:56.472Z,3.90
2023-05-20T09:21:26.268Z,3.50
2023-05-20T09:23:56.589Z,4.00
2023-05-20T09:26:23.926Z,3.83
2023-05-20T09:28:50.853Z,3.63
2023-05-20T09:31:17.284Z,3.53
2023-05-20T09:33:43.764Z,4.10
2023-05-20T09:36:11.055Z,4.10
2023-05-20T09:38:39.979Z,3.83
2023-05-20T09:41:08.267Z,4.30
2023-05-20T09:43:34.915Z,3.97
2023-05-20T09:46:01.978Z,4.00
2023-05-20T09:48:30.960Z,4.17
2023-05-20T09:51:01.910Z,3.97
2023-05-20T09:53:28.538Z,4.60
2023-05-20T09:55:55.114Z,4.50
2023-05-20T09:58:22.345Z,4.40
2023-05-20T10:00:49.197Z,4.30
2023-05-20T10:03:16.487Z,3.80
2023-05-20T10:05:48.136Z,4.30
2023-05-20T10:08:32.114Z,4.33
2023-05-20T10:11:07.470Z,3.93
2023-05-20T10:13:45.536Z,4.03
2023-05-20T10:16:18.210Z,4.07
2023-05-20T10:18:53.984Z,4.50
2023-05-20T10:21:23.738Z,4.83
2023-05-20T10:23:50.162Z,4.10
2023-05-20T10:26:16.497Z,4.60
2023-05-20T10:28:43.795Z,4.93
2023-05-20T10:31:17.233Z,4.53
2023-05-20T10:33:44.646Z,4.43
2023-05-20T10:36:12.072Z,4.13
2023-05-20T10:38:38.389Z,4.47
2023-05-20T10:41:10.807Z,4.50
2023-05-20T10:43:37.056Z,5.10
2023-05-20T10:46:07.518Z,4.73
2023-05-20T10:48:43.591Z,4.53
2023-05-20T10:51:13.922Z,4.93
2023-05-20T10:53:41.704Z,4.70
2023-05-20T10:56:16.768Z,4.63
2023-05-20T10:58:43.929Z,4.57
2023-05-20T11:01:11.039Z,4.97
2023-05-20T11:03:38.604Z,5.33
2023-05-20T11:06:11.391Z,5.03
2023-05-20T11:08:37.649Z,5.13
2023-05-20T11:11:04.104Z,5.53
2023-05-20T11:13:30.883Z,5.53
2023-05-20T11:15:58.597Z,5.20
2023-05-20T11:18:29.434Z,5.53
2023-05-20T11:20:55.799Z,5.50
2023-05-20T11:23:23.094Z,4.77
2023-05-20T11:25:49.597Z,4.73
2023-05-20T11:28:15.889Z,5.40
2023-05-20T11:30:42.464Z,5.07
2023-05-20T11:33:12.194Z,5.07
2023-05-20T11:35:45.146Z,4.83
2023-05-20T11:38:11.689Z,5.63
2023-05-20T11:40:49.722Z,5.90
2023-05-20T11:43:17.203Z,5.13
2023-05-20T11:45:45.054Z,5.90
2023-05-20T11:48:12.177Z,5.30
2023-05-20T11:50:40.333Z,5.20
2023-05-20T11:53:07.830Z,4.77
2023-05-20T11:55:35.088Z,5.10
2023-05-20T11:58:01.802Z,5.20
2023-05-20T12:00:31.354Z,4.67
2023-05-20T12:03:02.860Z,5.87
2023-05-20T12:05:29.263Z,5.20
2023-05-20T12:07:56.589Z,5.60
2023-05-20T12:10:22.976Z,5.73
2023-05-20T12:12:49.440Z,4.73
2023-05-20T12:15:15.907Z,5.37
2023-05-20T12:17:47.237Z,5.10
2023-05-20T12:20:15.349Z,5.20
2023-05-20T12:22:41.720Z,4.77
2023-05-20T12:25:11.218Z,4.47
2023-05-20T12:27:37.835Z,4.13
2023-05-20T12:30:05.185Z,4.40
2023-05-20T12:32:31.414Z,4.80
2023-05-20T12:34:57.748Z,4.60
2023-05-20T12:37:24.037Z,4.33
2023-05-20T12:39:50.710Z,4.60
2023-05-20T12:42:18.141Z,4.60
2023-05-20T12:44:44.616Z,4.60
2023-05-20T12:47:11.073Z,4.77
2023-05-20T12:49:37.456Z,4.10
2023-05-20T12:52:08.701Z,4.10
2023-05-20T12:54:38.293Z,4.30
2023-05-20T12:57:05.085Z,3.73
2023-05-20T12:59:32.017Z,4.20
2023-05-20T13:01:58.595Z,4.00
2023-05-20T13:04:24.878Z,4.10
2023-05-20T13:06:51.231Z,4.53
2023-05-20T13:09:17.578Z,3.63
2023-05-20T13:11:44.557Z,4.23
2023-05-20T13:14:10.957Z,4.30
2023-05-20T13:16:37.964Z,3.63
2023-05-20T13:19:04.465Z,3.63
2023-05-20T13:21:31.386Z,4.10
2023-05-20T13:23:57.745Z,4.03
2023-05-20T13:26:24.122Z,3.87
2023-05-20T13:28:50.489Z,3.83
2023-05-20T13:31:16.861Z,4.00
2023-05-20T13:33:43.861Z,3.93
2023-05-20T13:36:10.417Z,3.63
2023-05-20T13:38:37.631Z,3.97
2023-05-20T13:41:04.238Z,4.30
2023-05-20T13:43:31.228Z,3.60
2023-05-20T13:45:57.589Z,3.70
2023-05-20T13:48:24.025Z,3.97
2023-05-20T13:50:50.926Z,3.70
2023-05-20T13:53:17.277Z,3.80
2023-05-20T13:55:43.633Z,3.83
2023-05-20T13:58:09.884Z,3.43
2023-05-20T14:00:36.588Z,3.30
2023-05-20T14:03:04.254Z,3.37
2023-05-20T14:05:30.696Z,3.20
2023-05-20T14:07:57.734Z,3.60
2023-05-20T14:10:24.071Z,3.60
2023-05-20T14:12:51.622Z,3.83
2023-05-20T14:15:17.908Z,3.57
2023-05-20T14:17:44.706Z,3.53
2023-05-20T14:20:11.584Z,3.50
2023-05-20T14:22:37.868Z,3.50
2023-05-20T14:25:05.933Z,3.50
2023-05-20T14:27:32.326Z,3.57
2023-05-20T14:29:58.577Z,3.50
2023-05-20T14:32:25.043Z,3.90
2023-05-20T14:34:52.969Z,3.80
2023-05-20T14:37:19.303Z,3.60
2023-05-20T14:39:45.538Z,3.77
2023-05-20T14:42:12.517Z,3.90
2023-05-20T14:44:38.897Z,3.37
2023-05-20T14:47:05.434Z,4.53
2023-05-20T14:49:32.077Z,3.90
2023-05-20T14:51:58.355Z,3.30
2023-05-20T14:54:26.165Z,3.60
2023-05-20T14:56:52.451Z,3.50
2023-05-20T14:59:19.587Z,3.20
2023-05-20T15:01:46.084Z,3.10
2023-05-20T15:04:12.496Z,3.30
2023-05-20T15:06:38.906Z,3.90
2023-05-20T15:09:05.369Z,3.43
2023-05-20T15:11:31.707Z,3.60
2023-05-20T15:13:58.459Z,3.30
2023-05-20T15:16:25.520Z,3.20
2023-05-20T15:18:51.910Z,3.40
2023-05-20T15:21:18.490Z,3.13
2023-05-20T15:23:44.981Z,3.30
2023-05-20T15:26:11.505Z,3.23
2023-05-20T15:28:37.904Z,3.17
2023-05-20T15:31:04.178Z,3.17
2023-05-20T15:33:31.329Z,3.40
2023-05-20T15:35:57.747Z,3.20
2023-05-20T15:38:24.093Z,3.30
2023-05-20T15:40:50.561Z,3.30
2023-05-20T15:43:17.028Z,3.20
2023-05-20T15:45:44.089Z,3.60
2023-05-20T15:48:10.688Z,3.10
2023-05-20T15:50:37.880Z,3.80
2023-05-20T15:53:06.437Z,3.33
2023-05-20T15:55:32.608Z,3.60
2023-05-20T15:57:58.914Z,4.17
2023-05-20T16:00:25.347Z,3.43
2023-05-20T16:02:53.313Z,3.30
2023-05-20T16:05:23.745Z,3.43
2023-05-20T16:07:51.093Z,3.50
2023-05-20T16:10:17.546Z,3.40
2023-05-20T16:12:43.820Z,3.23
2023-05-20T16:15:10.612Z,3.40
2023-05-20T16:17:37.084Z,3.33
2023-05-20T16:20:06.217Z,3.67
2023-05-20T16:22:34.960Z,3.87
2023-05-20T16:25:03.141Z,3.67
2023-05-20T16:27:29.755Z,3.63
2023-05-20T16:29:56.018Z,3.63
2023-05-20T16:32:22.335Z,3.50
2023-05-20T16:34:48.679Z,3.77
2023-05-20T16:37:17.994Z,3.80
2023-05-20T16:39:44.783Z,3.57
2023-05-20T16:42:11.711Z,3.87
2023-05-20T16:44:38.461Z,3.53
2023-05-20T16:47:05.177Z,3.43
2023-05-20T16:49:31.570Z,3.70
2023-05-20T16:51:58.214Z,3.70
2023-05-20T16:54:24.786Z,4.17
2023-05-20T16:56:51.279Z,3.90
2023-05-20T16:59:18.251Z,3.73
2023-05-20T17:01:44.786Z,4.53
2023-05-20T17:04:11.171Z,4.40
2023-05-20T17:06:39.110Z,4.40
2023-05-20T17:09:06.636Z,4.10
2023-05-20T17:11:32.982Z,4.27
2023-05-20T17:13:59.320Z,4.00
2023-05-20T17:16:26.279Z,3.97
2023-05-20T17:18:52.818Z,3.90
2023-05-20T17:21:19.901Z,3.90
2023-05-20T17:23:46.250Z,4.03
2023-05-20T17:26:12.750Z,4.13
2023-05-20T17:28:39.026Z,4.00
2023-05-20T17:31:05.383Z,4.40
2023-05-20T17:33:32.510Z,4.30
2023-05-20T17:35:58.944Z,3.90
2023-05-20T17:38:25.666Z,4.17
2023-05-20T17:40:52.009Z,4.17
2023-05-20T17:43:18.685Z,3.70
2023-05-20T17:45:45.020Z,3.87
2023-05-20T17:48:11.905Z,3.60
2023-05-20T17:50:39.043Z,4.03
2023-05-20T17:53:05.323Z,4.07
2023-05-20T17:55:32.165Z,3.50
2023-05-20T17:58:01.080Z,3.70
2023-05-20T18:00:27.824Z,4.07
2023-05-20T18:02:56.842Z,3.90
2023-05-20T18:05:23.270Z,4.03
2023-05-20T18:07:50.273Z,4.03
2023-05-20T18:10:16.682Z,3.80
2023-05-20T18:12:44.532Z,4.23
2023-05-20T18:15:13.094Z,4.13
2023-05-20T18:17:40.597Z,4.13
2023-05-20T18:20:09.179Z,3.97
2023-05-20T18:22:35.387Z,4.10
2023-05-20T18:25:02.386Z,4.10
2023-05-20T18:27:28.617Z,3.97
2023-05-20T18:29:54.816Z,4.07
2023-05-20T18:32:25.793Z,3.97
2023-05-20T18:34:52.095Z,4.20
2023-05-20T18:37:18.538Z,4.50
2023-05-20T18:39:44.882Z,4.47
2023-05-20T18:42:11.801Z,4.20
2023-05-20T18:44:38.068Z,5.63
2023-05-20T18:47:04.924Z,4.30
2023-05-20T18:49:31.295Z,4.67
2023-05-20T18:51:57.845Z,4.37
2023-05-20T18:54:24.123Z,4.50
2023-05-20T18:56:50.491Z,4.03
2023-05-20T18:59:17.359Z,4.03
2023-05-20T19:01:43.785Z,4.37
2023-05-20T19:04:10.107Z,4.40
2023-05-20T19:06:36.951Z,4.47
2023-05-20T19:09:03.560Z,4.50
2023-05-20T19:11:30.735Z,4.93
2023-05-20T19:13:57.629Z,5.00
2023-05-20T19:16:24.516Z,4.77
2023-05-20T19:18:50.843Z,4.47
2023-05-20T19:21:17.308Z,4.90
2023-05-20T19:23:43.682Z,5.70
2023-05-20T19:26:10.123Z,4.50
2023-05-20T19:28:36.406Z,5.33
2023-05-20T19:31:02.790Z,5.43
2023-05-20T19:33:29.915Z,5.60
2023-05-20T19:35:56.979Z,5.33
2023-05-20T19:38:23.336Z,5.53
2023-05-20T19:40:49.657Z,5.73
2023-05-20T19:43:15.981Z,5.77
2023-05-20T19:45:42.541Z,5.77
2023-05-20T19:48:09.126Z,5.60
2023-05-20T19:50:36.741Z,5.80
2023-05-20T19:53:05.624Z,6.07
2023-05-20T19:55:31.897Z,6.73
2023-05-20T19:57:58.175Z,6.30
2023-05-20T20:00:24.510Z,6.63
2023-05-20T20:02:50.874Z,6.63
2023-05-20T20:05:17.426Z,6.40
2023-05-20T20:07:44.692Z,6.47
2023-05-20T20:10:11.080Z,6.83
2023-05-20T20:12:37.483Z,6.70
2023-05-20T20:15:04.652Z,7.13
2023-05-20T20:17:32.705Z,7.23
2023-05-20T20:19:59.082Z,6.97
2023-05-20T20:22:25.471Z,7.30
2023-05-20T20:24:52.491Z,7.10
2023-05-20T20:27:19.677Z,7.53
2023-05-20T20:29:46.027Z,7.30
2023-05-20T20:32:12.351Z,7.03
2023-05-20T20:34:38.646Z,7.40
2023-05-20T20:37:07.901Z,7.03
2023-05-20T20:39:36.413Z,7.03
2023-05-20T20:42:03.661Z,7.57
2023-05-20T20:44:31.651Z,7.67
2023-05-20T20:46:58.744Z,7.53
2023-05-20T20:49:27.675Z,7.67
2023-05-20T20:51:54.789Z,7.53
2023-05-20T20:54:21.125Z,8.17
2023-05-20T20:56:47.628Z,7.83
2023-05-20T20:59:15.121Z,8.53
2023-05-20T21:01:41.374Z,7.70
2023-05-20T21:04:08.521Z,7.93
2023-05-20T21:06:36.961Z,7.97
2023-05-20T21:09:03.721Z,8.60
2023-05-20T21:11:29.952Z,8.53
2023-05-20T21:13:56.356Z,8.13
2023-05-20T21:16:23.298Z,7.87
2023-05-20T21:18:49.675Z,9.33
2023-05-20T21:21:19.719Z,8.43
2023-05-20T21:23:46.213Z,8.40
2023-05-20T21:26:12.459Z,9.47
2023-05-20T21:28:38.818Z,8.93
2023-05-20T21:31:05.464Z,8.80
2023-05-20T21:33:32.407Z,9.13
2023-05-20T21:35:58.704Z,9.50
2023-05-20T21:38:24.956Z,8.70
2023-05-20T21:40:51.200Z,8.37
2023-05-20T21:43:17.403Z,9.17
2023-05-20T21:45:44.988Z,9.30
2023-05-20T21:48:11.460Z,9.43
2023-05-20T21:50:38.503Z,8.80
2023-05-20T21:53:04.798Z,9.03
2023-05-20T21:55:31.136Z,9.00
2023-05-20T21:57:57.503Z,9.47
2023-05-20T22:00:23.682Z,9.03
2023-05-20T22:02:50.525Z,9.83
2023-05-20T22:05:16.958Z,9.13
2023-05-20T22:07:43.920Z,9.37
2023-05-20T22:10:11.960Z,9.33
2023-05-20T22:12:38.245Z,9.37
2023-05-20T22:15:08.294Z,9.87
2023-05-20T22:17:34.610Z,9.13
2023-05-20T22:20:01.323Z,9.00
2023-05-20T22:22:27.539Z,9.67
2023-05-20T22:24:54.746Z,9.97
2023-05-20T22:27:21.109Z,9.47
2023-05-20T22:29:47.342Z,9.90
2023-05-20T22:32:13.734Z,10.07
2023-05-20T22:34:40.014Z,10.03
2023-05-20T22:37:06.498Z,10.17
2023-05-20T22:39:32.811Z,10.03
2023-05-20T22:41:59.754Z,10.27
2023-05-20T22:44:25.980Z,9.47
2023-05-20T22:46:52.455Z,9.73
2023-05-20T22:49:19.052Z,9.60
2023-05-20T22:51:45.287Z,9.77
2023-05-20T22:54:11.599Z,9.40
2023-05-20T22:56:37.877Z,9.70
2023-05-20T22:59:04.853Z,9.57
2023-05-20T23:01:31.378Z,9.70
2023-05-20T23:03:57.894Z,10.27
2023-05-20T23:06:24.680Z,9.60
2023-05-20T23:08:51.268Z,9.43
2023-05-20T23:11:17.644Z,9.87
2023-05-20T23:13:44.145Z,10.03
2023-05-20T23:16:11.184Z,9.60
2023-05-20T23:18:37.386Z,9.73
2023-05-20T23:21:03.867Z,10.47
2023-05-20T23:23:32.077Z,10.20
2023-05-20T23:25:59.083Z,10.27
2023-05-20T23:28:25.552Z,9.20
2023-05-20T23:30:51.754Z,9.47
2023-05-20T23:33:24.026Z,9.73
2023-05-20T23:35:51.337Z,9.90
2023-05-20T23:38:17.608Z,9.43
2023-05-20T23:40:43.909Z,9.30
2023-05-20T23:43:10.172Z,9.03
2023-05-20T23:45:36.682Z,9.70
2023-05-20T23:48:03.400Z,9.50
2023-05-20T23:50:31.764Z,9.10
2023-05-20T23:52:58.160Z,9.07
2023-05-20T23:55:24.512Z,8.60
2023-05-20T23:57:50.813Z,9.00
